Time;durP1;ratioP1;P1;durP2;ratioP2;P2;SDS_P1;SDS_P2;PMS_P1;PMS_P2;Temp;Humidity;BMP_temperature;BMP_pressure;BME280_temperature;BME280_humidity;BME280_pressure;Samples;Min_cycle;Max_cycle;Signal;HPM_P1;HPM_P2
2024/01/25 00:00:19;;;;;;;21.57;5.87;;;8.70;99.90;;;;;;4809566;29;20439;-80
2024/01/25 00:02:46;;;;;;;27.53;6.13;;;8.70;99.90;;;;;;4825997;29;20472;-80
2024/01/25 00:05:12;;;;;;;39.80;7.73;;;8.70;99.90;;;;;;4828330;29;20198;-81
2024/01/25 00:07:59;;;;;;;22.53;6.40;;;8.70;99.90;;;;;;4809034;29;20478;-79
2024/01/25 00:10:25;;;;;;;36.60;6.87;;;8.60;99.90;;;;;;4810806;29;20199;-80
2024/01/25 00:12:51;;;;;;;43.80;9.70;;;8.60;99.90;;;;;;4823750;29;20446;-80
2024/01/25 00:15:17;;;;;;;26.93;8.03;;;8.60;99.90;;;;;;4807504;29;20464;-81
2024/01/25 00:17:44;;;;;;;27.03;7.80;;;8.70;99.90;;;;;;4811093;29;20210;-81
2024/01/25 00:20:30;;;;;;;36.13;7.30;;;8.70;99.90;;;;;;4797591;29;20187;-81
2024/01/25 00:23:00;;;;;;;36.00;8.77;;;8.70;99.90;;;;;;4827807;29;20526;-80
2024/01/25 00:25:27;;;;;;;33.37;8.10;;;8.70;99.90;;;;;;4800582;29;20472;-80
2024/01/25 00:27:53;;;;;;;28.63;8.60;;;8.70;99.90;;;;;;4814453;29;20431;-81
2024/01/25 00:30:21;;;;;;;36.20;8.73;;;8.60;99.90;;;;;;4812562;29;20439;-79
2024/01/25 00:32:49;;;;;;;31.47;7.53;;;8.70;99.90;;;;;;4827848;29;20530;-81
2024/01/25 00:35:15;;;;;;;37.43;8.40;;;8.70;99.90;;;;;;4796344;29;20201;-78
2024/01/25 00:37:41;;;;;;;35.67;8.47;;;8.60;99.90;;;;;;4827421;29;20428;-79
2024/01/25 00:40:08;;;;;;;30.03;7.60;;;8.60;99.90;;;;;;4803837;29;20428;-78
2024/01/25 00:42:43;;;;;;;42.40;7.50;;;8.60;99.90;;;;;;4802742;29;20214;-81
2024/01/25 00:45:10;;;;;;;46.33;10.83;;;8.60;99.90;;;;;;4799672;29;20775;-81
2024/01/25 00:47:36;;;;;;;32.97;6.77;;;8.60;99.90;;;;;;4815002;29;20443;-80
2024/01/25 00:50:02;;;;;;;31.87;6.83;;;8.60;99.90;;;;;;4832726;29;20412;-82
2024/01/25 00:52:28;;;;;;;33.57;8.70;;;8.60;99.90;;;;;;4815695;29;21128;-81
2024/01/25 00:54:54;;;;;;;41.47;7.93;;;8.60;99.90;;;;;;4816129;29;20428;-79
2024/01/25 00:57:20;;;;;;;44.00;9.43;;;8.60;99.90;;;;;;4800049;29;20304;-81
2024/01/25 00:59:46;;;;;;;39.57;9.10;;;8.60;99.90;;;;;;4815194;29;20289;-79
2024/01/25 01:02:13;;;;;;;28.97;8.10;;;8.60;99.90;;;;;;4814886;29;20312;-78
2024/01/25 01:04:39;;;;;;;40.10;8.23;;;8.50;99.90;;;;;;4833324;29;20496;-80
2024/01/25 01:07:05;;;;;;;28.90;7.57;;;8.40;99.90;;;;;;4829835;29;20471;-78
2024/01/25 01:09:31;;;;;;;34.10;8.17;;;8.40;99.90;;;;;;4815126;29;20440;-80
2024/01/25 01:11:57;;;;;;;32.00;7.83;;;8.40;99.90;;;;;;4814682;29;20514;-79
2024/01/25 01:14:23;;;;;;;42.77;7.50;;;8.30;99.90;;;;;;4823128;29;20286;-81
2024/01/25 01:16:50;;;;;;;40.43;9.37;;;8.20;99.90;;;;;;4814689;29;20478;-81
2024/01/25 01:19:16;;;;;;;33.27;7.30;;;8.20;99.90;;;;;;4828469;29;20206;-81
2024/01/25 01:21:43;;;;;;;40.47;8.80;;;8.10;99.90;;;;;;4836786;29;20882;-80
2024/01/25 01:24:11;;;;;;;29.60;8.00;;;8.00;99.90;;;;;;4817699;29;20432;-80
2024/01/25 01:26:37;;;;;;;27.73;7.47;;;8.00;99.90;;;;;;4818122;29;20447;-79
2024/01/25 01:29:03;;;;;;;42.80;9.57;;;8.00;99.90;;;;;;4814882;29;20424;-81
2024/01/25 01:31:29;;;;;;;35.10;7.73;;;8.00;99.90;;;;;;4828731;29;20436;-79
2024/01/25 01:33:54;;;;;;;22.20;5.80;;;7.90;99.90;;;;;;4825157;29;20431;-79
2024/01/25 01:36:20;;;;;;;35.27;7.63;;;7.80;99.90;;;;;;4815184;29;20324;-79
2024/01/25 01:38:46;;;;;;;36.57;8.07;;;7.80;99.90;;;;;;4823236;29;20209;-81
2024/01/25 01:41:12;;;;;;;33.33;6.87;;;7.80;99.90;;;;;;4822422;29;20253;-78
2024/01/25 01:43:38;;;;;;;36.00;7.10;;;7.80;99.90;;;;;;4821596;29;20225;-77
2024/01/25 01:46:13;;;;;;;29.13;7.03;;;7.80;99.90;;;;;;4837365;29;20468;-80
2024/01/25 01:48:40;;;;;;;42.93;9.53;;;7.70;99.90;;;;;;4824273;29;20431;-78
2024/01/25 01:51:06;;;;;;;29.93;7.87;;;7.70;99.90;;;;;;4842310;29;20467;-79
2024/01/25 01:53:34;;;;;;;41.60;7.80;;;7.60;99.90;;;;;;4818292;29;20430;-81
2024/01/25 01:55:59;;;;;;;36.40;6.80;;;7.60;99.90;;;;;;4813832;29;20451;-80
2024/01/25 01:58:28;;;;;;;39.30;10.13;;;7.60;99.90;;;;;;4828357;29;20511;-80
2024/01/25 02:00:55;;;;;;;35.80;7.33;;;7.60;99.90;;;;;;4814187;29;20206;-79
2024/01/25 02:03:21;;;;;;;27.33;6.23;;;7.50;99.90;;;;;;4815784;29;20505;-79
2024/01/25 02:05:47;;;;;;;25.70;6.97;;;7.40;99.90;;;;;;4827935;29;20468;-79
2024/01/25 02:08:13;;;;;;;34.40;7.20;;;7.40;99.90;;;;;;4827203;29;20448;-79
2024/01/25 02:10:39;;;;;;;25.30;6.60;;;7.30;99.90;;;;;;4827866;29;20290;-80
2024/01/25 02:13:04;;;;;;;30.27;7.33;;;7.30;99.90;;;;;;4826622;29;20463;-79
2024/01/25 02:15:30;;;;;;;36.63;7.77;;;7.30;99.90;;;;;;4812892;29;20215;-79
2024/01/25 02:17:56;;;;;;;30.70;7.53;;;7.30;99.90;;;;;;4814866;29;20182;-77
2024/01/25 02:20:21;;;;;;;35.07;6.87;;;7.30;99.90;;;;;;4825837;29;20206;-78
2024/01/25 02:22:47;;;;;;;18.77;6.00;;;7.30;99.90;;;;;;4836350;29;20371;-79
2024/01/25 02:25:13;;;;;;;27.83;7.17;;;7.30;99.90;;;;;;4827350;29;20191;-79
2024/01/25 02:27:39;;;;;;;30.53;7.43;;;7.20;99.90;;;;;;4833241;29;20195;-78
2024/01/25 02:30:06;;;;;;;26.33;6.63;;;7.20;99.90;;;;;;4817203;29;20190;-79
2024/01/25 02:32:32;;;;;;;27.47;7.13;;;7.20;99.90;;;;;;4827283;29;20474;-79
2024/01/25 02:34:58;;;;;;;42.60;8.30;;;7.20;99.90;;;;;;4813405;29;20484;-79
2024/01/25 02:37:24;;;;;;;40.27;7.13;;;7.30;99.90;;;;;;4813158;29;20447;-78
2024/01/25 02:39:51;;;;;;;26.27;7.57;;;7.30;99.90;;;;;;4812611;29;20195;-81
2024/01/25 02:42:16;;;;;;;31.20;7.30;;;7.20;99.90;;;;;;4814503;29;20464;-78
2024/01/25 02:44:43;;;;;;;35.47;6.87;;;7.30;99.90;;;;;;4822689;29;20491;-79
2024/01/25 02:47:09;;;;;;;32.30;8.23;;;7.20;99.90;;;;;;4820312;29;20318;-78
2024/01/25 02:49:38;;;;;;;35.97;7.60;;;7.20;99.90;;;;;;4819413;29;20449;-80
2024/01/25 02:52:04;;;;;;;26.10;8.80;;;7.20;99.90;;;;;;4814154;29;20897;-79
2024/01/25 02:54:30;;;;;;;31.13;6.97;;;7.20;99.90;;;;;;4813760;29;20436;-79
2024/01/25 02:56:55;;;;;;;40.80;6.87;;;7.20;99.90;;;;;;4815896;29;20459;-79
2024/01/25 02:59:21;;;;;;;31.93;7.07;;;7.20;99.90;;;;;;4815883;29;20228;-80
2024/01/25 03:01:48;;;;;;;34.47;7.83;;;7.20;99.90;;;;;;4828436;29;20193;-79
2024/01/25 03:04:14;;;;;;;37.17;8.20;;;7.20;99.90;;;;;;4816199;29;20222;-78
2024/01/25 03:06:40;;;;;;;38.30;8.87;;;7.20;99.90;;;;;;4801801;29;20476;-79
2024/01/25 03:09:06;;;;;;;34.90;7.57;;;7.30;99.90;;;;;;4811721;29;20186;-79
2024/01/25 03:11:31;;;;;;;39.87;8.70;;;7.20;99.90;;;;;;4811267;29;20433;-79
2024/01/25 03:13:57;;;;;;;38.03;8.63;;;7.20;99.90;;;;;;4826105;29;20195;-80
2024/01/25 03:16:23;;;;;;;34.87;8.43;;;7.20;99.90;;;;;;4811964;29;20503;-81
2024/01/25 03:18:49;;;;;;;37.03;8.27;;;7.20;99.90;;;;;;4812869;29;20443;-79
2024/01/25 03:21:15;;;;;;;38.23;8.47;;;7.10;99.90;;;;;;4825840;29;20553;-78
2024/01/25 03:23:41;;;;;;;29.60;7.47;;;7.10;99.90;;;;;;4809608;29;20484;-81
2024/01/25 03:26:07;;;;;;;35.83;9.20;;;7.10;99.90;;;;;;4826055;29;20601;-79
2024/01/25 03:28:35;;;;;;;49.63;9.47;;;7.00;99.90;;;;;;4813056;29;20194;-78
2024/01/25 03:31:01;;;;;;;30.60;7.13;;;6.90;99.90;;;;;;4816022;29;20420;-79
2024/01/25 03:33:28;;;;;;;32.37;8.60;;;6.90;99.90;;;;;;4820018;29;20444;-79
2024/01/25 03:35:53;;;;;;;32.77;8.57;;;6.80;99.90;;;;;;4812895;29;20210;-78
2024/01/25 03:38:19;;;;;;;37.30;7.80;;;6.90;99.90;;;;;;4811334;29;20495;-79
2024/01/25 03:40:45;;;;;;;39.27;8.30;;;6.80;99.90;;;;;;4813356;29;20588;-78
2024/01/25 03:43:11;;;;;;;41.50;8.53;;;6.80;99.90;;;;;;4825451;29;20509;-78
2024/01/25 03:45:36;;;;;;;42.87;9.47;;;6.80;99.90;;;;;;4825484;29;20489;-78
2024/01/25 03:48:03;;;;;;;26.70;7.57;;;6.80;99.90;;;;;;4811287;29;20623;-78
2024/01/25 03:50:28;;;;;;;48.00;8.27;;;6.80;99.90;;;;;;4811345;29;20262;-78
2024/01/25 03:52:54;;;;;;;38.37;6.80;;;6.80;99.90;;;;;;4826053;29;20468;-79
2024/01/25 03:55:20;;;;;;;38.37;8.30;;;6.80;99.90;;;;;;4811120;29;20210;-78
2024/01/25 03:57:46;;;;;;;50.50;8.43;;;6.80;99.90;;;;;;4824384;29;20735;-80
2024/01/25 04:00:12;;;;;;;36.93;8.27;;;6.80;99.90;;;;;;4810840;29;20247;-79
2024/01/25 04:02:38;;;;;;;41.77;9.33;;;6.70;99.90;;;;;;4827218;29;20442;-79
2024/01/25 04:05:04;;;;;;;25.50;7.67;;;6.70;99.90;;;;;;4810810;29;20424;-79
2024/01/25 04:07:30;;;;;;;29.50;7.87;;;6.70;99.90;;;;;;4810504;29;20234;-79
2024/01/25 04:09:56;;;;;;;33.73;7.77;;;6.60;99.90;;;;;;4817334;29;20455;-78
2024/01/25 04:12:21;;;;;;;41.63;7.20;;;6.60;99.90;;;;;;4832811;29;20424;-79
2024/01/25 04:14:47;;;;;;;31.37;7.33;;;6.60;99.90;;;;;;4816295;29;20198;-80
2024/01/25 04:17:13;;;;;;;49.30;10.30;;;6.50;99.90;;;;;;4813501;29;20230;-79
2024/01/25 04:19:38;;;;;;;28.90;7.80;;;6.60;99.90;;;;;;4818442;29;20455;-78
2024/01/25 04:22:04;;;;;;;30.27;7.27;;;6.50;99.90;;;;;;4834655;29;20261;-78
2024/01/25 04:24:30;;;;;;;33.37;7.23;;;6.50;99.90;;;;;;4817611;29;20263;-78
2024/01/25 04:26:56;;;;;;;31.43;7.57;;;6.40;99.90;;;;;;4832165;29;20273;-78
2024/01/25 04:29:22;;;;;;;37.90;8.30;;;6.40;99.90;;;;;;4831768;29;20235;-77
2024/01/25 04:31:48;;;;;;;35.43;8.70;;;6.40;99.90;;;;;;4815564;29;20418;-79
2024/01/25 04:34:14;;;;;;;28.90;8.20;;;6.40;99.90;;;;;;4833718;29;20205;-77
2024/01/25 04:36:40;;;;;;;37.03;8.13;;;6.40;99.90;;;;;;4830661;29;20471;-79
2024/01/25 04:39:06;;;;;;;29.67;6.73;;;6.40;99.90;;;;;;4810981;29;20424;-79
2024/01/25 04:41:35;;;;;;;34.97;7.63;;;6.30;99.90;;;;;;4811551;29;20206;-79
2024/01/25 04:44:01;;;;;;;23.93;7.50;;;6.30;99.90;;;;;;4812005;29;20446;-78
2024/01/25 04:46:26;;;;;;;32.43;7.70;;;6.30;99.90;;;;;;4811459;29;20554;-78
2024/01/25 04:48:52;;;;;;;38.07;9.20;;;6.20;99.90;;;;;;4814116;29;20530;-78
2024/01/25 04:51:19;;;;;;;31.83;8.53;;;6.20;99.90;;;;;;4834270;29;20206;-79
2024/01/25 04:53:45;;;;;;;37.23;7.97;;;6.20;99.90;;;;;;4816728;29;20193;-80
2024/01/25 04:56:11;;;;;;;43.77;9.63;;;6.10;99.90;;;;;;4811409;29;20921;-80
2024/01/25 04:58:37;;;;;;;39.40;10.40;;;6.10;99.90;;;;;;4811619;29;20512;-78
2024/01/25 05:01:03;;;;;;;33.57;7.70;;;6.10;99.90;;;;;;4820563;29;20343;-78
2024/01/25 05:03:31;;;;;;;54.40;8.50;;;6.10;99.90;;;;;;4824453;29;20456;-78
2024/01/25 05:05:57;;;;;;;32.10;9.80;;;6.10;99.90;;;;;;4838178;29;20482;-79
2024/01/25 05:08:22;;;;;;;35.23;8.53;;;6.00;99.90;;;;;;4822476;29;20185;-79
2024/01/25 05:10:48;;;;;;;39.27;9.30;;;6.00;99.90;;;;;;4809101;29;20459;-79
2024/01/25 05:13:14;;;;;;;35.03;8.13;;;6.10;99.90;;;;;;4841529;29;20182;-79
2024/01/25 05:15:40;;;;;;;26.63;8.80;;;6.00;99.90;;;;;;4826085;29;20482;-78
2024/01/25 05:18:06;;;;;;;40.90;8.60;;;6.00;99.90;;;;;;4845838;29;20409;-78
2024/01/25 05:20:32;;;;;;;34.03;9.10;;;6.00;99.90;;;;;;4846242;29;20432;-79
2024/01/25 05:23:05;;;;;;;31.97;7.40;;;6.00;99.90;;;;;;4828155;29;20482;-80
2024/01/25 05:25:31;;;;;;;35.93;7.43;;;5.90;99.90;;;;;;4827563;29;20464;-79
2024/01/25 05:27:57;;;;;;;35.20;8.30;;;5.90;99.90;;;;;;4843636;29;20865;-79
2024/01/25 05:30:25;;;;;;;35.80;7.83;;;5.90;99.90;;;;;;4811814;29;20805;-78
2024/01/25 05:32:53;;;;;;;20.00;6.30;;;5.80;99.90;;;;;;4797082;29;20504;-79
2024/01/25 05:35:19;;;;;;;32.60;7.93;;;5.80;99.90;;;;;;4827456;29;20460;-81
2024/01/25 05:38:05;;;;;;;29.67;7.17;;;5.80;99.90;;;;;;4813738;29;20479;-81
2024/01/25 05:40:32;;;;;;;38.90;8.43;;;5.80;99.90;;;;;;4828485;29;20305;-82
2024/01/25 05:42:57;;;;;;;38.80;7.23;;;5.70;99.90;;;;;;4828106;29;20475;-80
2024/01/25 05:45:24;;;;;;;35.80;7.07;;;5.70;99.90;;;;;;4830627;29;20550;-80
2024/01/25 05:47:52;;;;;;;33.27;6.80;;;5.70;99.90;;;;;;4814251;29;20189;-81
2024/01/25 05:50:21;;;;;;;33.33;7.70;;;5.70;99.90;;;;;;4815431;29;20442;-80
2024/01/25 05:52:49;;;;;;;35.00;8.10;;;5.70;99.90;;;;;;4830499;29;20439;-81
2024/01/25 05:55:19;;;;;;;34.53;9.50;;;5.60;99.90;;;;;;4815177;29;20443;-80
2024/01/25 05:57:47;;;;;;;34.57;7.60;;;5.60;99.90;;;;;;4814692;29;20448;-80
2024/01/25 06:00:33;;;;;;;32.93;9.13;;;5.50;99.90;;;;;;4814721;29;20444;-82
2024/01/25 06:03:30;;;;;;;40.53;7.93;;;5.50;99.90;;;;;;4833618;29;20217;-81
2024/01/25 06:05:59;;;;;;;30.17;7.50;;;5.50;99.90;;;;;;4883193;24;20485;-82
2024/01/25 06:08:30;;;;;;;37.00;7.67;;;5.40;99.90;;;;;;4810911;29;20445;-81
2024/01/25 06:11:01;;;;;;;20.93;7.70;;;5.40;99.90;;;;;;4782278;29;20436;-82
2024/01/25 06:13:28;;;;;;;23.47;6.27;;;5.40;99.90;;;;;;4797652;29;20437;-82
2024/01/25 06:15:56;;;;;;;39.10;8.70;;;5.30;99.90;;;;;;4796283;30;20445;-80
2024/01/25 06:18:22;;;;;;;22.83;5.77;;;5.30;99.90;;;;;;4814853;29;20420;-81
2024/01/25 06:21:13;;;;;;;27.23;5.70;;;5.30;99.90;;;;;;4781855;30;20417;-81
2024/01/25 06:23:59;;;;;;;31.80;7.73;;;5.20;99.90;;;;;;4810995;29;20473;-82
2024/01/25 06:26:25;;;;;;;31.60;8.33;;;5.10;99.90;;;;;;4811322;29;20475;-81
2024/01/25 06:28:58;;;;;;;41.27;8.90;;;5.10;99.90;;;;;;4811894;29;20407;-82
2024/01/25 06:32:09;;;;;;;34.53;8.67;;;5.10;99.90;;;;;;4807124;29;20457;-81
2024/01/25 06:35:38;;;;;;;33.87;8.10;;;5.10;99.90;;;;;;5503782;24;20965;-82
2024/01/25 06:38:26;;;;;;;24.43;7.40;;;5.00;99.90;;;;;;4779239;30;20445;-82
2024/01/25 06:41:05;;;;;;;29.30;7.40;;;5.00;99.90;;;;;;4792438;29;20446;-82
2024/01/25 06:44:04;;;;;;;27.53;6.10;;;5.00;99.90;;;;;;4751884;30;20484;-82
2024/01/25 06:52:29;;;;;;;28.87;7.00;;;5.10;99.90;;;;;;4848956;24;20482;-85
2024/01/25 07:09:13;;;;;;;38.20;10.10;;;5.00;99.90;;;;;;5157731;24;20529;-80
2024/01/25 07:50:37;;;;;;;30.47;6.67;;;4.90;99.90;;;;;;4649498;24;20502;-73
2024/01/25 07:53:03;;;;;;;20.00;5.57;;;4.90;99.90;;;;;;4812822;29;20440;-71
2024/01/25 07:55:29;;;;;;;18.00;5.97;;;4.90;99.90;;;;;;4810792;29;20218;-75
2024/01/25 07:57:55;;;;;;;28.23;7.43;;;5.00;99.90;;;;;;4812999;29;20448;-75
2024/01/25 08:00:21;;;;;;;29.17;7.30;;;5.00;99.90;;;;;;4813365;29;20458;-72
2024/01/25 08:02:46;;;;;;;24.47;6.90;;;5.10;99.90;;;;;;4827139;29;20557;-71
2024/01/25 08:05:12;;;;;;;31.20;7.27;;;5.20;99.90;;;;;;4813680;29;20186;-72
2024/01/25 08:07:37;;;;;;;25.70;6.50;;;5.30;99.90;;;;;;4810275;29;20190;-71
2024/01/25 08:10:05;;;;;;;22.83;7.40;;;5.30;99.90;;;;;;4826278;29;20190;-73
2024/01/25 08:12:30;;;;;;;20.17;7.03;;;5.40;99.90;;;;;;4811465;29;20301;-71
2024/01/25 08:14:57;;;;;;;26.23;7.90;;;5.50;99.90;;;;;;4811146;29;20456;-73
2024/01/25 08:17:23;;;;;;;19.37;7.07;;;5.50;99.90;;;;;;4829325;29;20255;-70
2024/01/25 08:19:48;;;;;;;36.70;9.37;;;5.60;99.90;;;;;;4834526;29;20458;-73
2024/01/25 08:22:14;;;;;;;29.20;8.80;;;5.70;99.90;;;;;;4813676;29;20222;-73
2024/01/25 08:24:40;;;;;;;31.73;10.73;;;5.80;99.90;;;;;;4813590;29;20186;-71
2024/01/25 08:27:07;;;;;;;26.97;8.20;;;5.90;99.90;;;;;;4810995;29;20237;-72
2024/01/25 08:29:33;;;;;;;37.67;12.73;;;6.00;99.90;;;;;;4812952;29;20444;-73
2024/01/25 08:31:59;;;;;;;33.27;10.07;;;6.10;99.90;;;;;;4816647;29;20428;-72
2024/01/25 08:34:24;;;;;;;31.00;9.43;;;6.00;99.90;;;;;;4818501;29;20447;-73
2024/01/25 08:36:50;;;;;;;24.63;9.00;;;6.20;99.90;;;;;;4819602;29;20230;-73
2024/01/25 08:39:15;;;;;;;36.43;10.00;;;6.20;99.90;;;;;;4818068;29;20199;-76
2024/01/25 08:41:42;;;;;;;26.67;9.67;;;6.30;99.90;;;;;;4819476;29;20266;-72
2024/01/25 08:44:08;;;;;;;31.47;11.40;;;6.30;99.90;;;;;;4832877;29;20603;-72
2024/01/25 08:46:33;;;;;;;49.20;13.97;;;6.40;99.90;;;;;;4820605;29;20513;-74
2024/01/25 08:48:59;;;;;;;38.10;12.00;;;6.40;99.90;;;;;;4838125;29;20479;-75
2024/01/25 08:51:24;;;;;;;38.17;10.80;;;6.50;99.90;;;;;;4820793;29;20194;-73
2024/01/25 08:53:51;;;;;;;29.40;10.70;;;6.60;99.90;;;;;;4819005;29;20267;-71
2024/01/25 08:56:17;;;;;;;26.00;8.93;;;6.70;99.90;;;;;;4820748;29;20569;-72
2024/01/25 08:58:42;;;;;;;26.63;9.90;;;6.80;99.90;;;;;;4837463;29;20451;-73
2024/01/25 09:01:08;;;;;;;33.20;12.47;;;6.80;99.90;;;;;;4820457;29;20504;-73
2024/01/25 09:03:34;;;;;;;28.33;10.23;;;6.90;99.90;;;;;;4838464;29;20225;-72
2024/01/25 09:06:05;;;;;;;31.80;11.00;;;7.00;99.90;;;;;;4834183;29;20211;-70
2024/01/25 09:08:31;;;;;;;41.40;12.47;;;7.10;99.90;;;;;;4834530;29;20436;-72
2024/01/25 09:10:57;;;;;;;45.90;13.50;;;7.20;99.90;;;;;;4820802;29;20448;-72
2024/01/25 09:13:23;;;;;;;37.20;12.20;;;7.20;99.90;;;;;;4821925;29;20432;-74
2024/01/25 09:15:48;;;;;;;25.93;10.40;;;7.30;99.90;;;;;;4834869;29;20232;-73
2024/01/25 09:18:14;;;;;;;39.70;12.53;;;7.30;99.90;;;;;;4832672;29;20240;-71
2024/01/25 09:20:40;;;;;;;38.47;13.40;;;7.40;99.90;;;;;;4818392;29;20210;-72
2024/01/25 09:23:06;;;;;;;46.70;12.93;;;7.40;99.90;;;;;;4812214;29;20499;-69
2024/01/25 09:25:32;;;;;;;26.80;11.00;;;7.40;99.90;;;;;;4814047;29;20905;-70
2024/01/25 09:27:58;;;;;;;27.83;10.63;;;7.50;99.90;;;;;;4816060;29;20416;-73
2024/01/25 09:30:23;;;;;;;27.43;12.50;;;7.50;99.90;;;;;;4810812;29;20435;-73
2024/01/25 09:32:49;;;;;;;41.77;13.10;;;7.50;99.90;;;;;;4834135;29;20278;-73
2024/01/25 09:35:15;;;;;;;28.57;11.40;;;7.50;99.90;;;;;;4814814;29;21625;-71
2024/01/25 09:37:40;;;;;;;28.03;11.00;;;7.60;99.90;;;;;;4810987;29;20281;-71
2024/01/25 09:40:06;;;;;;;21.47;9.93;;;7.70;99.90;;;;;;4815354;29;20202;-71
2024/01/25 09:42:32;;;;;;;39.13;12.50;;;7.80;99.90;;;;;;4813729;29;20309;-70
2024/01/25 09:44:57;;;;;;;25.40;10.47;;;7.80;99.90;;;;;;4829385;29;20459;-71
2024/01/25 09:47:23;;;;;;;23.83;8.83;;;7.90;99.90;;;;;;4816361;29;20182;-71
2024/01/25 09:49:49;;;;;;;29.97;12.30;;;8.00;99.90;;;;;;4823508;29;20240;-70
2024/01/25 09:52:19;;;;;;;35.20;13.07;;;8.00;99.90;;;;;;4809996;29;20413;-73
2024/01/25 09:54:45;;;;;;;30.83;11.10;;;8.20;99.90;;;;;;4833172;29;20258;-70
2024/01/25 09:57:22;;;;;;;29.93;11.10;;;8.30;99.90;;;;;;4812382;29;20490;-72
2024/01/25 09:59:50;;;;;;;30.90;9.00;;;8.40;99.90;;;;;;4813546;29;20478;-71
2024/01/25 10:02:15;;;;;;;30.07;10.47;;;8.50;99.90;;;;;;4813550;29;20467;-70
2024/01/25 10:04:41;;;;;;;45.87;13.17;;;8.50;99.90;;;;;;4813506;29;20462;-72
2024/01/25 10:07:07;;;;;;;33.00;11.57;;;8.40;99.90;;;;;;4813719;29;20230;-71
2024/01/25 10:09:42;;;;;;;32.40;12.60;;;8.50;99.90;;;;;;4814060;29;20198;-70
2024/01/25 10:12:08;;;;;;;33.47;11.47;;;8.40;99.90;;;;;;4812264;29;20613;-73
2024/01/25 10:14:33;;;;;;;32.77;12.00;;;8.40;99.90;;;;;;4810217;29;20436;-72
2024/01/25 10:17:00;;;;;;;39.13;13.00;;;8.40;99.90;;;;;;4813295;29;20455;-73
2024/01/25 10:19:27;;;;;;;27.10;11.33;;;8.40;99.90;;;;;;4813233;29;20202;-73
2024/01/25 10:21:53;;;;;;;35.10;13.20;;;8.50;99.90;;;;;;4813669;29;20722;-71
2024/01/25 10:24:18;;;;;;;24.17;10.30;;;8.50;99.90;;;;;;4829632;29;20427;-73
2024/01/25 10:26:44;;;;;;;40.60;12.50;;;8.70;99.90;;;;;;4828671;29;20265;-70
2024/01/25 10:29:10;;;;;;;35.33;12.10;;;8.60;99.90;;;;;;4812798;29;20221;-69
2024/01/25 10:31:42;;;;;;;20.63;10.07;;;8.80;99.90;;;;;;4813745;29;20197;-69
2024/01/25 10:34:12;;;;;;;42.10;12.97;;;8.90;99.90;;;;;;4812051;29;20447;-70
2024/01/25 10:36:40;;;;;;;26.47;11.17;;;9.10;99.90;;;;;;4812648;29;20742;-72
2024/01/25 10:39:08;;;;;;;35.53;11.27;;;9.10;99.90;;;;;;4828592;29;20775;-72
2024/01/25 10:41:34;;;;;;;39.00;12.70;;;9.10;99.90;;;;;;4810881;29;20476;-71
2024/01/25 10:44:01;;;;;;;35.07;10.23;;;9.20;99.90;;;;;;4813286;29;20495;-70
2024/01/25 10:46:27;;;;;;;37.30;11.30;;;9.00;99.90;;;;;;4812403;29;20468;-70
2024/01/25 10:48:57;;;;;;;40.23;12.13;;;9.20;99.90;;;;;;4810487;29;20479;-71
2024/01/25 10:51:23;;;;;;;49.73;13.80;;;9.30;99.90;;;;;;4813183;29;20465;-71
2024/01/25 10:53:49;;;;;;;28.70;12.00;;;9.20;99.90;;;;;;4811352;29;20447;-71
2024/01/25 10:56:15;;;;;;;33.43;10.03;;;9.20;99.90;;;;;;4825960;29;20519;-72
2024/01/25 10:58:41;;;;;;;35.60;12.43;;;9.20;99.90;;;;;;4811714;29;20210;-69
2024/01/25 11:01:14;;;;;;;39.63;13.03;;;9.30;99.90;;;;;;4825874;29;20274;-70
2024/01/25 11:03:40;;;;;;;32.47;10.90;;;9.30;99.90;;;;;;4833127;29;20467;-73
2024/01/25 11:06:11;;;;;;;37.93;13.17;;;9.30;99.90;;;;;;4814569;29;20452;-72
2024/01/25 11:08:38;;;;;;;28.35;11.95;;;9.40;99.90;;;;;;4808437;29;20909;-71
2024/01/25 11:11:08;;;;;;;41.00;11.20;;;9.50;99.90;;;;;;4807132;29;20285;-71
2024/01/25 11:13:33;;;;;;;20.92;9.60;;;9.60;99.90;;;;;;4814088;29;20846;-72
2024/01/25 11:15:59;;;;;;;13.40;7.03;;;9.70;99.90;;;;;;4813235;29;20227;-72
2024/01/25 11:18:28;;;;;;;12.47;6.80;;;9.80;99.90;;;;;;4817478;29;20616;-72
2024/01/25 11:20:59;;;;;;;27.27;9.43;;;9.90;99.90;;;;;;4815385;29;20210;-72
2024/01/25 11:23:32;;;;;;;28.13;11.63;;;9.90;99.90;;;;;;4812717;29;20985;-72
2024/01/25 11:25:57;;;;;;;22.07;8.60;;;10.10;99.90;;;;;;4812042;29;20460;-70
2024/01/25 11:28:23;;;;;;;27.30;9.13;;;10.10;99.90;;;;;;4814821;29;20423;-71
2024/01/25 11:30:49;;;;;;;24.93;9.23;;;10.20;99.90;;;;;;4812102;29;20232;-73
2024/01/25 11:33:15;;;;;;;21.20;9.43;;;10.10;99.90;;;;;;4816065;29;20241;-72
2024/01/25 11:35:42;;;;;;;29.97;10.17;;;10.20;99.90;;;;;;4813624;29;20526;-71
2024/01/25 11:38:09;;;;;;;32.83;11.10;;;10.30;99.90;;;;;;4826943;29;20190;-72
2024/01/25 11:40:35;;;;;;;24.93;9.90;;;10.40;99.90;;;;;;4813022;29;20432;-71
2024/01/25 11:43:02;;;;;;;25.13;9.03;;;10.50;99.90;;;;;;4811851;29;20884;-71
2024/01/25 11:45:27;;;;;;;22.47;7.83;;;10.50;99.90;;;;;;4811265;29;20856;-72
2024/01/25 11:47:53;;;;;;;15.20;9.10;;;10.70;99.90;;;;;;4818692;29;20454;-70
2024/01/25 11:50:19;;;;;;;25.10;8.47;;;10.70;99.90;;;;;;4816611;29;20309;-72
2024/01/25 11:52:44;;;;;;;21.80;8.27;;;10.80;99.90;;;;;;4814219;29;20242;-72
2024/01/25 11:55:10;;;;;;;21.07;7.37;;;10.80;99.90;;;;;;4817077;29;20558;-74
2024/01/25 11:57:43;;;;;;;11.30;7.40;;;10.90;99.90;;;;;;4815049;29;20290;-72
2024/01/25 12:00:12;;;;;;;27.40;9.77;;;11.00;99.90;;;;;;4814288;29;20437;-73
2024/01/25 12:02:38;;;;;;;26.73;10.48;;;11.00;99.90;;;;;;4828722;29;20475;-72
2024/01/25 12:05:05;;;;;;;21.70;7.90;;;10.90;99.90;;;;;;4813767;29;20522;-73
2024/01/25 12:07:31;;;;;;;21.97;7.73;;;11.00;99.90;;;;;;4826843;29;20421;-71
2024/01/25 12:10:02;;;;;;;26.37;8.00;;;11.00;99.90;;;;;;4813961;29;20441;-71
2024/01/25 12:12:28;;;;;;;23.57;7.50;;;11.00;99.90;;;;;;4812945;29;20534;-71
2024/01/25 12:15:01;;;;;;;17.67;7.60;;;11.00;99.90;;;;;;4812831;29;20444;-71
2024/01/25 12:17:28;;;;;;;17.63;7.07;;;11.10;99.90;;;;;;4813726;29;20436;-70
2024/01/25 12:19:58;;;;;;;27.67;7.30;;;11.20;99.90;;;;;;4834970;29;20712;-73
2024/01/25 12:22:27;;;;;;;22.60;6.73;;;11.20;99.90;;;;;;4816984;29;20467;-73
2024/01/25 12:24:58;;;;;;;15.13;6.23;;;11.30;99.90;;;;;;4816509;29;20425;-73
2024/01/25 12:27:25;;;;;;;22.70;5.80;;;11.40;99.90;;;;;;4829823;29;20432;-70
2024/01/25 12:29:53;;;;;;;15.37;5.60;;;11.40;99.90;;;;;;4817016;29;20431;-73
2024/01/25 12:32:22;;;;;;;12.48;5.00;;;11.40;99.10;;;;;;4816139;29;20464;-71
2024/01/25 12:34:58;;;;;;;18.23;6.43;;;11.50;99.30;;;;;;4822593;29;20615;-71
2024/01/25 12:37:24;;;;;;;14.02;5.85;;;11.60;97.60;;;;;;4814020;29;20439;-70
2024/01/25 12:39:53;;;;;;;19.00;7.53;;;11.70;98.20;;;;;;4814727;29;20202;-71
2024/01/25 12:42:20;;;;;;;23.27;7.20;;;11.70;96.30;;;;;;4814746;29;20293;-72
2024/01/25 12:44:45;;;;;;;16.60;6.27;;;11.60;94.90;;;;;;4814750;29;20436;-73
2024/01/25 12:47:12;;;;;;;12.23;6.37;;;11.60;95.10;;;;;;4816863;29;20817;-71
2024/01/25 12:49:43;;;;;;;12.40;5.20;;;11.70;95.40;;;;;;4819090;29;20229;-74
2024/01/25 12:52:14;;;;;;;10.50;5.43;;;11.60;94.60;;;;;;4818784;29;20446;-71
2024/01/25 12:54:40;;;;;;;20.10;6.67;;;11.60;94.30;;;;;;4815907;29;20875;-71
2024/01/25 12:57:06;;;;;;;17.33;6.30;;;11.80;93.60;;;;;;4818329;29;20468;-74
2024/01/25 12:59:33;;;;;;;16.90;6.87;;;11.70;93.40;;;;;;4817406;29;20465;-72
2024/01/25 13:01:59;;;;;;;18.43;6.70;;;11.70;92.80;;;;;;4815577;29;20428;-71
2024/01/25 13:04:24;;;;;;;18.37;6.20;;;11.70;93.00;;;;;;4816272;29;20523;-71
2024/01/25 13:06:54;;;;;;;11.73;5.10;;;11.70;92.70;;;;;;4812798;29;20216;-71
2024/01/25 13:09:19;;;;;;;20.30;6.60;;;11.70;92.50;;;;;;4813215;29;20213;-69
2024/01/25 13:11:47;;;;;;;23.90;6.77;;;11.60;91.70;;;;;;4828932;29;20500;-72
2024/01/25 13:14:12;;;;;;;17.50;5.20;;;11.60;91.50;;;;;;4815761;29;20197;-71
2024/01/25 13:16:38;;;;;;;10.17;5.07;;;11.50;91.80;;;;;;4814524;29;20532;-70
2024/01/25 13:19:04;;;;;;;9.57;4.90;;;11.60;91.80;;;;;;4815172;29;20493;-73
2024/01/25 13:21:29;;;;;;;10.53;4.27;;;11.60;91.90;;;;;;4831712;29;20340;-72
2024/01/25 13:23:55;;;;;;;21.97;6.57;;;11.60;91.90;;;;;;4814161;29;20230;-71
2024/01/25 13:26:20;;;;;;;21.80;6.43;;;11.60;91.00;;;;;;4816119;29;20232;-72
2024/01/25 13:28:46;;;;;;;20.27;5.87;;;11.60;91.00;;;;;;4819047;29;20199;-71
2024/01/25 13:31:12;;;;;;;15.90;5.07;;;11.70;91.40;;;;;;4830446;29;20209;-72
2024/01/25 13:33:37;;;;;;;16.83;4.50;;;11.70;91.10;;;;;;4818438;29;20283;-73
2024/01/25 13:36:08;;;;;;;19.30;6.10;;;11.80;90.90;;;;;;4812999;29;20266;-75
2024/01/25 13:38:34;;;;;;;13.13;5.13;;;11.70;90.90;;;;;;4820827;29;20486;-73
2024/01/25 13:41:00;;;;;;;16.47;5.17;;;11.80;90.70;;;;;;4820069;29;20976;-75
2024/01/25 13:43:25;;;;;;;16.83;5.00;;;11.70;90.60;;;;;;4837508;29;20474;-75